Time;durP1;ratioP1;P1;durP2;ratioP2;P2;SDS_P1;SDS_P2;PMS_P1;PMS_P2;Temp;Humidity;BMP_temperature;BMP_pressure;BME280_temperature;BME280_humidity;BME280_pressure;Samples;Min_cycle;Max_cycle;Signal;HPM_P1;HPM_P2
2023/08/02 00:00:58;;;;;;;5.20;2.50;;;;;;;14.68;100.00;99151.59;223373;1265;141438;-83
2023/08/02 00:05:59;;;;;;;8.60;3.40;;;;;;;14.62;100.00;99154.44;223972;1267;139138;-83
2023/08/02 00:10:59;;;;;;;8.70;2.90;;;;;;;14.58;100.00;99159.75;223437;1267;143050;-83
2023/08/02 00:16:00;;;;;;;6.70;2.70;;;;;;;14.54;100.00;99155.26;223879;1266;139139;-83
2023/08/02 00:21:00;;;;;;;7.30;2.80;;;;;;;14.48;100.00;99153.27;223562;1266;141378;-83
2023/08/02 00:26:01;;;;;;;8.60;3.80;;;;;;;14.45;100.00;99154.92;223852;1267;139053;-83
2023/08/02 00:31:01;;;;;;;6.80;3.30;;;;;;;14.46;100.00;99166.37;223480;1266;142015;-83
2023/08/02 00:36:01;;;;;;;10.90;4.50;;;;;;;14.45;100.00;99168.61;223956;1265;138982;-83
2023/08/02 00:41:04;;;;;;;7.90;3.20;;;;;;;14.43;100.00;99170.02;223409;1266;141311;-83
2023/08/02 00:46:04;;;;;;;8.80;4.00;;;;;;;14.41;100.00;99163.73;223847;1265;139280;-82
2023/08/02 00:51:12;;;;;;;8.60;4.00;;;;;;;14.39;100.00;99161.24;223550;1267;141391;-82
2023/08/02 00:56:15;;;;;;;11.70;4.40;;;;;;;14.38;100.00;99163.27;224031;1267;111262;-83
2023/08/02 01:01:16;;;;;;;8.80;4.00;;;;;;;14.36;100.00;99164.48;223458;1265;141285;-83
2023/08/02 01:06:28;;;;;;;8.80;4.10;;;;;;;14.34;100.00;99170.06;223974;1267;139037;-83
2023/08/02 01:11:41;;;;;;;10.70;3.40;;;;;;;14.32;100.00;99174.56;223327;1265;142892;-83
2023/08/02 01:16:44;;;;;;;10.00;4.70;;;;;;;14.28;100.00;99174.71;223943;1265;139241;-83
2023/08/02 01:21:44;;;;;;;13.90;5.00;;;;;;;14.27;100.00;99174.66;223455;1265;141842;-83
2023/08/02 01:26:47;;;;;;;10.70;5.00;;;;;;;14.28;100.00;99173.08;224106;1267;95889;-81
2023/08/02 01:31:49;;;;;;;10.40;5.00;;;;;;;14.27;100.00;99174.91;223395;1265;141785;-83
2023/08/02 01:36:50;;;;;;;10.90;4.90;;;;;;;14.26;100.00;99181.81;223969;1265;139331;-83
2023/08/02 01:41:51;;;;;;;14.80;4.70;;;;;;;14.24;100.00;99182.41;223290;1265;140762;-83
2023/08/02 01:46:51;;;;;;;12.10;6.30;;;;;;;14.23;100.00;99182.20;223961;1265;139864;-82
2023/08/02 01:51:51;;;;;;;9.10;4.30;;;;;;;14.21;100.00;99189.20;223361;1265;141108;-83
2023/08/02 01:56:52;;;;;;;11.30;4.50;;;;;;;14.18;100.00;99192.18;224082;1265;95804;-82
2023/08/02 02:01:52;;;;;;;8.70;4.70;;;;;;;14.16;100.00;99195.45;223265;1265;141214;-83
2023/08/02 02:06:53;;;;;;;12.40;6.90;;;;;;;14.15;100.00;99193.03;223801;1265;139053;-83
2023/08/02 02:11:53;;;;;;;15.70;6.00;;;;;;;14.12;100.00;99195.95;223304;1265;142873;-83
2023/08/02 02:16:53;;;;;;;9.40;5.20;;;;;;;14.10;100.00;99193.30;223988;1264;140232;-82
2023/08/02 02:21:54;;;;;;;10.70;5.50;;;;;;;14.08;100.00;99193.75;223308;1265;140187;-83
2023/08/02 02:26:54;;;;;;;12.50;5.30;;;;;;;14.06;100.00;99195.52;223948;1265;95927;-83
2023/08/02 02:31:55;;;;;;;11.70;5.50;;;;;;;14.02;100.00;99205.91;223425;1265;140563;-83
2023/08/02 02:36:55;;;;;;;10.90;5.30;;;;;;;13.98;100.00;99200.21;223949;1265;139583;-83
2023/08/02 02:41:55;;;;;;;9.80;5.40;;;;;;;13.96;100.00;99203.10;223424;1265;141690;-83
2023/08/02 02:46:56;;;;;;;10.50;4.80;;;;;;;13.93;100.00;99200.71;223967;1264;139006;-83
2023/08/02 02:51:56;;;;;;;9.20;5.10;;;;;;;13.92;100.00;99206.02;223409;1265;141949;-83
2023/08/02 02:56:57;;;;;;;12.10;5.40;;;;;;;13.90;100.00;99207.96;224072;1265;95946;-83
2023/08/02 03:02:00;;;;;;;12.20;5.80;;;;;;;13.88;100.00;99213.48;223386;1265;141136;-83
2023/08/02 03:07:01;;;;;;;12.90;6.00;;;;;;;13.85;100.00;99218.59;223898;1265;139273;-83
2023/08/02 03:12:01;;;;;;;11.60;5.80;;;;;;;13.84;100.00;99214.66;223423;1265;141194;-82
2023/08/02 03:17:02;;;;;;;11.70;6.10;;;;;;;13.81;100.00;99218.05;223904;1265;139031;-82
2023/08/02 03:22:02;;;;;;;12.20;6.30;;;;;;;13.78;100.00;99225.71;223405;1265;141447;-82
2023/08/02 03:27:03;;;;;;;11.80;6.80;;;;;;;13.72;100.00;99228.66;224077;1265;96393;-82
2023/08/02 03:32:04;;;;;;;15.60;6.80;;;;;;;13.69;100.00;99231.58;223281;1265;140325;-82
2023/08/02 03:37:05;;;;;;;11.80;5.80;;;;;;;13.66;100.00;99235.13;223947;1265;139254;-83
2023/08/02 03:42:07;;;;;;;11.50;5.70;;;;;;;13.65;100.00;99236.81;223394;1265;141676;-83
2023/08/02 03:47:07;;;;;;;10.90;6.30;;;;;;;13.64;100.00;99234.13;223899;1265;139209;-82
2023/08/02 03:52:08;;;;;;;13.50;6.40;;;;;;;13.65;100.00;99235.68;223420;1265;141877;-83
2023/08/02 03:57:08;;;;;;;12.40;6.50;;;;;;;13.66;100.00;99248.05;224112;1265;95900;-82
2023/08/02 04:02:09;;;;;;;13.80;6.20;;;;;;;13.67;100.00;99244.41;223445;1265;142341;-82
2023/08/02 04:07:09;;;;;;;14.40;6.90;;;;;;;13.70;100.00;99242.23;224006;1265;139801;-83
2023/08/02 04:12:10;;;;;;;15.50;5.90;;;;;;;13.72;100.00;99239.42;223390;1265;140836;-82
2023/08/02 04:17:10;;;;;;;11.80;6.40;;;;;;;13.74;100.00;99233.13;223948;1264;139945;-83
2023/08/02 04:22:11;;;;;;;10.80;5.40;;;;;;;13.78;100.00;99234.70;223371;1265;142872;-82
2023/08/02 04:27:11;;;;;;;12.60;5.70;;;;;;;13.82;100.00;99234.06;223787;1265;139911;-83
2023/08/02 04:32:11;;;;;;;14.40;6.30;;;;;;;13.87;100.00;99236.42;223422;1265;143017;-82
2023/08/02 04:37:12;;;;;;;13.70;6.00;;;;;;;13.92;100.00;99235.61;223962;1265;139563;-83
2023/08/02 04:42:15;;;;;;;11.20;5.50;;;;;;;13.99;100.00;99237.80;223409;1265;141819;-83
2023/08/02 04:47:15;;;;;;;12.00;5.70;;;;;;;14.09;100.00;99244.80;223963;1265;139672;-83
2023/08/02 04:52:16;;;;;;;12.00;5.60;;;;;;;14.19;100.00;99248.45;223407;1265;142293;-84
2023/08/02 04:57:16;;;;;;;16.30;5.70;;;;;;;14.30;100.00;99258.64;223934;1265;140586;-82
2023/08/02 05:02:18;;;;;;;11.70;5.60;;;;;;;14.40;100.00;99260.56;223540;1265;140932;-82
2023/08/02 05:07:18;;;;;;;11.60;4.90;;;;;;;14.48;100.00;99253.96;223941;1265;139869;-82
2023/08/02 05:12:18;;;;;;;14.50;5.10;;;;;;;14.55;100.00;99250.79;223415;1265;140949;-83
2023/08/02 05:17:19;;;;;;;10.60;4.90;;;;;;;14.62;100.00;99257.11;223803;1265;139876;-84
2023/08/02 05:22:19;;;;;;;10.10;5.00;;;;;;;14.71;100.00;99258.95;223445;1265;141663;-82
2023/08/02 05:27:20;;;;;;;8.30;4.60;;;;;;;14.81;100.00;99257.13;223846;1265;139710;-82
2023/08/02 05:32:20;;;;;;;10.30;5.40;;;;;;;14.94;100.00;99265.56;223549;1265;141101;-83
2023/08/02 05:37:21;;;;;;;12.40;5.50;;;;;;;15.15;100.00;99264.95;223937;1265;138855;-80
2023/08/02 05:42:21;;;;;;;11.70;4.50;;;;;;;15.48;100.00;99267.27;223354;1265;141049;-82
2023/08/02 05:47:22;;;;;;;9.70;4.30;;;;;;;15.87;100.00;99266.56;223954;1265;138967;-82
2023/08/02 05:52:23;;;;;;;11.20;4.60;;;;;;;16.35;100.00;99271.89;223438;1265;141180;-83
2023/08/02 05:57:24;;;;;;;13.50;4.10;;;;;;;16.84;100.00;99270.58;223859;1265;139018;-83
2023/08/02 06:02:24;;;;;;;11.60;4.70;;;;;;;17.22;100.00;99278.42;223538;1265;141426;-81
2023/08/02 06:07:25;;;;;;;7.80;4.20;;;;;;;17.58;100.00;99280.66;223969;1265;139116;-85
2023/08/02 06:12:25;;;;;;;9.90;4.40;;;;;;;17.88;100.00;99281.23;223385;1265;143154;-87
2023/08/02 06:17:26;;;;;;;8.70;4.20;;;;;;;18.10;100.00;99287.36;223783;1265;139030;-86
2023/08/02 06:22:28;;;;;;;10.40;4.50;;;;;;;18.31;100.00;99284.73;223439;1265;140684;-86
2023/08/02 06:27:29;;;;;;;9.80;3.70;;;;;;;18.48;100.00;99298.80;223946;1264;141375;-85
2023/08/02 06:32:29;;;;;;;8.40;4.30;;;;;;;18.51;99.63;99299.41;223503;1265;140901;-85
2023/08/02 06:37:33;;;;;;;8.90;3.90;;;;;;;18.40;99.39;99301.77;223852;1265;139337;-86
2023/08/02 06:42:33;;;;;;;9.30;4.00;;;;;;;18.39;99.52;99297.64;223313;1265;140388;-88
2023/08/02 06:47:34;;;;;;;9.80;3.60;;;;;;;18.43;99.27;99285.06;223816;1265;138848;-86
2023/08/02 06:52:34;;;;;;;11.60;4.40;;;;;;;18.64;99.59;99285.38;223461;1264;142405;-87
2023/08/02 06:57:35;;;;;;;11.50;4.10;;;;;;;18.84;97.99;99284.07;224001;1265;139304;-88
2023/08/02 07:02:35;;;;;;;9.00;3.40;;;;;;;19.04;98.59;99275.75;223456;1265;141226;-85
2023/08/02 07:07:36;;;;;;;10.60;3.80;;;;;;;19.36;97.83;99267.86;223760;1265;138680;-84
2023/08/02 07:12:36;;;;;;;8.50;3.60;;;;;;;19.47;95.57;99269.70;223479;1265;141253;-84
2023/08/02 07:17:37;;;;;;;7.00;3.30;;;;;;;19.33;94.41;99274.14;223868;1265;138715;-85
2023/08/02 07:22:39;;;;;;;10.70;3.80;;;;;;;19.34;94.55;99274.91;223400;1264;142395;-86
2023/08/02 07:27:41;;;;;;;7.60;3.90;;;;;;;19.35;94.02;99274.88;224004;1265;139023;-83
2023/08/02 07:32:41;;;;;;;12.50;3.80;;;;;;;19.36;93.46;99274.66;223533;1265;140942;-85
2023/08/02 07:37:42;;;;;;;9.20;3.70;;;;;;;19.45;93.32;99269.58;224011;1265;139410;-83
2023/08/02 07:42:42;;;;;;;10.20;4.10;;;;;;;19.54;92.97;99262.60;223392;1265;142123;-85
2023/08/02 07:47:43;;;;;;;10.60;3.40;;;;;;;19.69;93.43;99254.58;223964;1265;139029;-84
2023/08/02 07:52:43;;;;;;;9.50;3.40;;;;;;;19.83;90.38;99257.91;223448;1265;142384;-83
2023/08/02 07:57:44;;;;;;;5.90;2.90;;;;;;;20.02;91.76;99258.85;224048;1265;139935;-84
2023/08/02 08:02:44;;;;;;;9.10;3.10;;;;;;;20.30;90.49;99260.61;223569;1265;140432;-85
2023/08/02 08:07:45;;;;;;;7.90;3.30;;;;;;;20.37;88.04;99253.65;224043;1265;139035;-85
2023/08/02 08:12:45;;;;;;;8.30;3.30;;;;;;;20.44;88.06;99258.27;223491;1264;141109;-84
2023/08/02 08:17:46;;;;;;;8.50;3.00;;;;;;;20.63;87.21;99262.09;223917;1265;138974;-84
2023/08/02 08:22:47;;;;;;;11.90;3.00;;;;;;;20.79;86.90;99256.89;223528;1264;140446;-84
2023/08/02 08:27:47;;;;;;;7.80;3.30;;;;;;;21.11;88.05;99261.40;223988;1265;139333;-85
2023/08/02 08:32:48;;;;;;;8.70;3.20;;;;;;;21.62;86.20;99261.10;223647;1264;140948;-85
2023/08/02 08:37:51;;;;;;;9.00;3.80;;;;;;;22.07;84.94;99254.34;224048;1265;138861;-86
2023/08/02 08:42:54;;;;;;;7.20;3.10;;;;;;;22.52;81.92;99261.86;223321;1265;142423;-84
2023/08/02 08:47:54;;;;;;;9.70;3.40;;;;;;;22.91;81.16;99249.41;223825;1265;138738;-85
2023/08/02 08:52:57;;;;;;;9.60;3.00;;;;;;;23.42;81.42;99239.40;223301;1268;141029;-83
2023/08/02 08:57:57;;;;;;;7.90;2.70;;;;;;;23.92;77.98;99232.84;223988;1265;138996;-88
2023/08/02 09:02:59;;;;;;;6.60;2.50;;;;;;;24.28;74.93;99233.66;223595;1265;139918;-89
2023/08/02 09:08:00;;;;;;;9.70;3.00;;;;;;;24.21;71.90;99234.86;223759;1265;139150;-88
2023/08/02 09:13:00;;;;;;;8.10;3.10;;;;;;;24.21;72.07;99239.94;223250;1265;140442;-91
2023/08/02 09:18:04;;;;;;;7.60;2.30;;;;;;;24.23;69.97;99242.14;224033;1265;138718;-90
2023/08/02 09:23:14;;;;;;;6.80;2.10;;;;;;;23.98;67.81;99233.41;223317;1265;140720;-88
2023/08/02 09:28:14;;;;;;;8.70;3.00;;;;;;;23.97;67.89;99236.11;223848;1265;138369;-85
2023/08/02 09:33:15;;;;;;;9.00;2.70;;;;;;;23.88;68.17;99247.32;223358;1265;141278;-89
2023/08/02 09:38:16;;;;;;;10.20;2.30;;;;;;;23.82;67.29;99243.90;224033;1265;95886;-89
2023/08/02 09:43:18;;;;;;;7.10;2.90;;;;;;;23.82;66.91;99245.02;223364;1265;292148;-87
2023/08/02 09:48:19;;;;;;;6.70;2.70;;;;;;;23.75;67.44;99247.40;223895;1265;138140;-87
2023/08/02 09:53:20;;;;;;;6.40;2.60;;;;;;;23.73;66.88;99253.77;223368;1265;139244;-91
2023/08/02 09:58:21;;;;;;;10.40;2.50;;;;;;;23.64;67.11;99251.06;224119;1264;138090;-89
2023/08/02 10:03:23;;;;;;;7.60;2.70;;;;;;;23.59;68.01;99249.73;223580;1265;142515;-90
2023/08/02 10:08:29;;;;;;;9.40;2.80;;;;;;;23.67;67.63;99241.73;224185;1265;96042;-89
2023/08/02 10:13:32;;;;;;;7.50;2.40;;;;;;;23.76;66.70;99232.80;223347;1268;139352;-90
2023/08/02 10:18:34;;;;;;;8.40;2.90;;;;;;;24.07;65.50;99221.04;223975;1266;138188;-91
2023/08/02 10:23:35;;;;;;;10.40;2.30;;;;;;;24.45;64.65;99212.46;223362;1266;139559;-90
2023/08/02 10:28:36;;;;;;;4.40;2.00;;;;;;;24.87;62.86;99213.23;223950;1265;138912;-88
2023/08/02 10:33:37;;;;;;;7.20;2.20;;;;;;;25.20;62.29;99211.48;223523;1265;140983;-92
2023/08/02 10:38:41;;;;;;;8.00;2.20;;;;;;;25.33;60.82;99204.89;224037;1265;96074;-92
2023/08/02 10:43:53;;;;;;;8.40;2.40;;;;;;;25.53;61.32;99194.06;223563;1265;139610;-90
2023/08/02 10:48:56;;;;;;;10.40;2.20;;;;;;;25.61;59.93;99181.89;224075;1265;137921;-92
2023/08/02 10:54:08;;;;;;;6.10;1.70;;;;;;;25.58;58.55;99169.93;223782;1265;138232;-88
2023/08/02 10:59:09;;;;;;;6.90;2.10;;;;;;;25.92;59.22;99158.63;223530;1265;140255;-88
2023/08/02 11:04:13;;;;;;;5.50;1.80;;;;;;;26.09;56.65;99156.65;223914;1265;138718;-90
2023/08/02 11:09:13;;;;;;;5.20;1.80;;;;;;;26.27;57.10;99150.20;223320;1266;141614;-91
2023/08/02 11:14:27;;;;;;;5.30;1.70;;;;;;;26.78;56.15;99145.60;224162;1265;95852;-93
2023/08/02 11:19:29;;;;;;;5.10;2.10;;;;;;;26.89;53.25;99143.92;223430;1265;139596;-92
2023/08/02 11:24:43;;;;;;;6.70;1.80;;;;;;;26.91;53.31;99135.91;223876;1265;138574;-91
2023/08/02 11:30:07;;;;;;;5.90;1.60;;;;;;;27.13;52.25;99128.06;223357;1264;140161;-89
2023/08/02 11:35:08;;;;;;;4.20;1.60;;;;;;;27.23;51.63;99125.27;224063;1268;138178;-93
2023/08/02 11:40:09;;;;;;;5.40;1.70;;;;;;;27.42;52.81;99117.71;223514;1265;139786;-88
2023/08/02 11:45:10;;;;;;;5.40;1.70;;;;;;;27.46;51.59;99105.48;224142;1265;95914;-90
2023/08/02 11:50:22;;;;;;;6.10;1.70;;;;;;;27.20;52.12;99102.28;223542;1265;139249;-92
2023/08/02 11:55:23;;;;;;;5.90;1.60;;;;;;;27.29;52.70;99094.82;223909;1268;137976;-91
2023/08/02 12:00:24;;;;;;;7.90;1.60;;;;;;;27.37;51.19;99093.55;223441;1265;138831;-93
2023/08/02 12:05:25;;;;;;;7.00;2.00;;;;;;;27.35;51.75;99080.35;224020;1265;138201;-93
2023/08/02 12:10:28;;;;;;;5.00;1.70;;;;;;;27.51;50.97;99073.77;223420;1267;139577;-94
2023/08/02 12:15:29;;;;;;;6.20;1.80;;;;;;;27.86;51.50;99077.44;223918;1264;138097;-91
2023/08/02 12:20:34;;;;;;;4.10;1.80;;;;;;;27.83;50.70;99080.45;223732;1265;140014;-93
2023/08/02 12:25:43;;;;;;;6.10;1.90;;;;;;;27.52;50.58;99065.39;224004;1268;137757;-88
2023/08/02 12:31:04;;;;;;;5.50;1.70;;;;;;;27.38;50.38;99062.36;223266;1268;139958;-91
2023/08/02 12:36:05;;;;;;;5.30;1.70;;;;;;;27.02;50.49;99064.34;223989;1266;138069;-92
2023/08/02 12:41:07;;;;;;;5.60;1.50;;;;;;;26.75;51.57;99069.45;223449;1265;139103;-91
2023/08/02 12:46:08;;;;;;;5.60;1.90;;;;;;;26.75;51.73;99061.80;223848;1265;138908;-90
2023/08/02 12:51:10;;;;;;;5.20;1.80;;;;;;;26.66;51.79;99049.48;223269;1265;139538;-93
2023/08/02 12:56:12;;;;;;;3.50;1.50;;;;;;;26.59;51.35;99036.86;223849;1268;137655;-93
2023/08/02 13:01:19;;;;;;;7.10;1.80;;;;;;;26.55;52.17;99031.29;223439;1265;138794;-89
2023/08/02 13:06:19;;;;;;;4.50;1.70;;;;;;;26.59;51.47;99027.08;223808;1265;138214;-95
2023/08/02 13:11:20;;;;;;;5.40;1.60;;;;;;;26.56;51.59;99020.35;223231;1265;141147;-93
2023/08/02 13:16:21;;;;;;;4.50;1.70;;;;;;;26.46;51.27;99021.46;224348;1265;138113;-92
2023/08/02 13:21:28;;;;;;;4.90;1.70;;;;;;;26.38;51.56;99011.31;223215;1265;139217;-96
2023/08/02 13:26:35;;;;;;;5.30;1.90;;;;;;;26.43;51.97;99002.02;224022;1265;96035;-95
2023/08/02 13:31:46;;;;;;;;;;;;;;;;;;;;;
2023/08/02 13:36:49;;;;;;;4.90;2.00;;;;;;;26.37;52.02;98984.14;223786;1268;139036;-91
2023/08/02 13:41:49;;;;;;;3.90;1.50;;;;;;;26.25;51.77;98978.50;223457;1266;138842;-92
2023/08/02 13:46:50;;;;;;;6.30;1.70;;;;;;;26.19;52.31;98975.69;224002;1266;138030;-92
2023/08/02 13:51:51;;;;;;;3.80;1.70;;;;;;;26.19;52.57;98965.70;223473;1265;139750;-94
2023/08/02 13:56:52;;;;;;;4.40;1.70;;;;;;;26.27;52.70;98962.07;224058;1268;106193;-90
2023/08/02 14:01:53;;;;;;;9.10;1.80;;;;;;;26.40;52.71;98962.44;223521;1265;138695;-95
2023/08/02 14:06:54;;;;;;;4.60;1.70;;;;;;;26.32;51.06;98950.26;223887;1266;138355;-91
2023/08/02 14:11:54;;;;;;;5.50;1.90;;;;;;;26.22;51.95;98943.44;223244;1265;139646;-90
2023/08/02 14:16:58;;;;;;;6.90;1.60;;;;;;;26.30;51.42;98943.60;224157;1265;138327;-91
2023/08/02 14:22:02;;;;;;;4.80;1.70;;;;;;;26.35;50.55;98939.95;223094;1266;139605;-94
2023/08/02 14:27:04;;;;;;;3.20;1.60;;;;;;;26.36;49.54;98924.60;224088;1266;96280;-94
2023/08/02 14:32:06;;;;;;;4.60;1.80;;;;;;;26.39;49.76;98914.73;223459;1265;139480;-91
2023/08/02 14:37:07;;;;;;;5.10;1.60;;;;;;;26.44;49.20;98914.56;223846;1265;139431;-91
2023/08/02 14:42:18;;;;;;;6.90;1.90;;;;;;;26.50;49.20;98913.90;223423;1266;140107;-93
2023/08/02 14:47:24;;;;;;;6.70;1.80;;;;;;;26.48;48.94;98907.05;223970;1266;138236;-92
2023/08/02 14:52:24;;;;;;;4.50;1.90;;;;;;;26.35;48.01;98902.81;223502;1265;138979;-93
2023/08/02 14:57:26;;;;;;;3.00;1.60;;;;;;;26.21;48.50;98884.36;224012;1265;96002;-89
2023/08/02 15:02:27;;;;;;;6.10;1.70;;;;;;;26.26;47.90;98888.64;223472;1268;139120;-94
2023/08/02 15:12:28;;;;;;;7.20;1.90;;;;;;;26.16;47.35;98891.72;223751;1264;138845;-92
2023/08/02 15:17:30;;;;;;;4.40;1.50;;;;;;;26.03;46.53;98879.00;224235;1264;138500;-93
2023/08/02 15:22:31;;;;;;;4.60;1.40;;;;;;;25.97;46.65;98875.34;223315;1264;139580;-93
2023/08/02 15:27:32;;;;;;;5.50;1.30;;;;;;;25.93;46.97;98859.77;224126;1264;96036;-93
2023/08/02 15:32:33;;;;;;;4.30;1.60;;;;;;;25.84;45.92;98853.73;223356;1263;139141;-93
2023/08/02 15:37:34;;;;;;;3.70;1.60;;;;;;;25.75;46.15;98846.59;224089;1266;137896;-94
2023/08/02 15:42:35;;;;;;;6.70;1.50;;;;;;;25.75;46.33;98833.00;223535;1264;139660;-94
2023/08/02 15:47:41;;;;;;;4.30;1.50;;;;;;;25.69;46.82;98813.52;224100;1264;138206;-92
2023/08/02 15:52:45;;;;;;;3.60;1.30;;;;;;;25.66;47.01;98804.55;223214;1265;205052;-95
2023/08/02 15:57:45;;;;;;;3.70;1.30;;;;;;;25.64;47.08;98793.04;224114;1268;137998;-91
2023/08/02 16:02:46;;;;;;;4.70;1.40;;;;;;;25.60;47.55;98786.14;223749;1268;139434;-93
2023/08/02 16:07:46;;;;;;;3.40;1.30;;;;;;;25.59;47.39;98795.00;224040;1264;138594;-89
2023/08/02 16:12:47;;;;;;;5.80;1.30;;;;;;;25.53;47.62;98804.34;223520;1264;139711;-94
2023/08/02 16:17:47;;;;;;;5.40;1.50;;;;;;;25.46;48.37;98806.36;223930;1264;138378;-92
2023/08/02 16:22:48;;;;;;;3.90;1.30;;;;;;;25.43;48.93;98800.54;223456;1264;139796;-90
2023/08/02 16:27:48;;;;;;;3.80;1.30;;;;;;;25.36;49.16;98801.90;223877;1264;138766;-90
2023/08/02 16:32:49;;;;;;;3.90;1.50;;;;;;;25.26;49.76;98805.32;223514;1264;140593;-90
2023/08/02 16:37:50;;;;;;;3.20;1.20;;;;;;;25.16;49.98;98817.36;223925;1264;137836;-94
2023/08/02 16:42:51;;;;;;;5.00;1.30;;;;;;;25.05;50.08;98820.65;223360;1264;140539;-88
2023/08/02 16:47:52;;;;;;;7.90;1.90;;;;;;;24.87;48.68;98827.92;224034;1264;139071;-93
2023/08/02 16:52:53;;;;;;;3.70;1.10;;;;;;;24.66;48.05;98836.36;223626;1264;139353;-88
2023/08/02 16:57:54;;;;;;;3.60;1.10;;;;;;;24.53;48.90;98840.00;223990;1264;138014;-88
2023/08/02 17:02:54;;;;;;;5.00;1.80;;;;;;;24.39;48.76;98836.55;223354;1264;140759;-92
2023/08/02 17:07:55;;;;;;;8.00;2.20;;;;;;;24.25;49.34;98829.30;224180;1264;138516;-92
2023/08/02 17:12:55;;;;;;;6.10;1.80;;;;;;;24.19;50.31;98833.59;223464;1264;138832;-93
2023/08/02 17:17:56;;;;;;;5.60;2.80;;;;;;;24.11;50.81;98833.27;223958;1264;139610;-92
2023/08/02 17:22:58;;;;;;;5.50;1.70;;;;;;;23.98;51.02;98829.07;223479;1264;139358;-93
2023/08/02 17:27:58;;;;;;;4.80;1.80;;;;;;;23.89;51.73;98815.19;224114;1264;137960;-92
2023/08/02 17:32:59;;;;;;;6.80;1.90;;;;;;;23.78;51.97;98800.77;223476;1264;139505;-93
2023/08/02 17:38:00;;;;;;;6.90;2.10;;;;;;;23.66;52.21;98781.58;224099;1264;138033;-91
2023/08/02 17:43:03;;;;;;;6.60;2.20;;;;;;;23.59;52.51;98765.16;223450;1264;139828;-92
2023/08/02 17:48:11;;;;;;;6.90;2.00;;;;;;;23.50;52.96;98752.81;223932;1268;138809;-92
2023/08/02 17:53:12;;;;;;;9.20;2.30;;;;;;;23.42;53.06;98754.67;223395;1264;139414;-90
2023/08/02 17:58:12;;;;;;;6.60;2.20;;;;;;;23.36;53.11;98747.80;224150;1264;139446;-91
2023/08/02 18:03:13;;;;;;;6.90;2.00;;;;;;;23.31;53.49;98716.85;223525;1266;140256;-91
2023/08/02 18:08:13;;;;;;;8.50;2.30;;;;;;;23.25;53.88;98672.06;224046;1264;138680;-87
2023/08/02 18:13:14;;;;;;;11.50;2.10;;;;;;;23.11;54.19;98637.98;223464;1264;140270;-86
2023/08/02 18:18:14;;;;;;;15.50;3.70;;;;;;;22.97;53.91;98589.52;224149;1264;138091;-88
2023/08/02 18:23:15;;;;;;;8.90;2.50;;;;;;;22.83;54.51;98657.20;223669;1264;139967;-93
2023/08/02 18:28:16;;;;;;;5.50;1.90;;;;;;;22.64;55.38;98772.77;224186;1264;139502;-90
2023/08/02 18:33:17;;;;;;;7.80;2.30;;;;;;;22.47;56.64;98765.91;223605;1265;139591;-90
2023/08/02 18:38:17;;;;;;;7.10;2.20;;;;;;;22.25;58.05;98775.61;224200;1264;138017;-86
2023/08/02 18:43:22;;;;;;;5.70;2.20;;;;;;;22.04;59.41;98755.59;223591;1264;141205;-92
2023/08/02 18:48:24;;;;;;;4.60;2.10;;;;;;;21.89;60.37;98725.58;224168;1264;138469;-88
2023/08/02 18:53:24;;;;;;;6.40;2.00;;;;;;;21.71;61.54;98707.21;223428;1264;140083;-92
2023/08/02 18:58:29;;;;;;;5.00;1.80;;;;;;;21.56;62.72;98711.65;224077;1264;138889;-94
2023/08/02 19:03:30;;;;;;;8.20;2.50;;;;;;;21.40;63.72;98710.28;223545;1268;139009;-91
2023/08/02 19:08:37;;;;;;;7.30;2.50;;;;;;;21.27;64.85;98736.75;224086;1264;138375;-91
2023/08/02 19:13:43;;;;;;;3.50;1.80;;;;;;;21.14;65.89;98741.20;223496;1264;139536;-96
2023/08/02 19:18:44;;;;;;;5.70;2.00;;;;;;;21.05;66.53;98750.65;224101;1263;137968;-93
2023/08/02 19:23:46;;;;;;;6.50;2.30;;;;;;;20.95;67.07;98746.19;223508;1264;139996;-92
2023/08/02 19:28:47;;;;;;;4.70;2.10;;;;;;;20.87;67.85;98747.70;224171;1264;138412;-92
2023/08/02 19:33:48;;;;;;;4.40;2.10;;;;;;;20.80;68.59;98750.70;223598;1263;140385;-89
2023/08/02 19:38:49;;;;;;;5.00;2.00;;;;;;;20.71;69.33;98756.91;224174;1264;95999;-91
2023/08/02 19:43:49;;;;;;;8.90;2.20;;;;;;;20.64;69.84;98754.47;223502;1264;139122;-92
2023/08/02 19:48:54;;;;;;;7.70;2.20;;;;;;;20.59;70.46;98753.94;224096;1264;138133;-94
2023/08/02 19:53:54;;;;;;;4.70;2.50;;;;;;;20.56;70.93;98756.23;223481;1263;139490;-89
2023/08/02 19:58:58;;;;;;;8.60;2.40;;;;;;;20.55;71.30;98753.52;224227;1263;139235;-91
2023/08/02 20:04:01;;;;;;;5.50;2.60;;;;;;;20.52;71.73;98740.35;223677;1264;153205;-91
2023/08/02 20:09:02;;;;;;;5.80;2.40;;;;;;;20.50;72.02;98723.05;223757;1264;139809;-94
2023/08/02 20:14:03;;;;;;;4.90;2.10;;;;;;;20.48;72.50;98711.52;223810;1264;138460;-91
2023/08/02 20:19:10;;;;;;;6.40;2.10;;;;;;;20.43;72.97;98684.83;223612;1264;142275;-88
2023/08/02 20:24:15;;;;;;;3.90;2.10;;;;;;;20.38;73.54;98683.79;224078;1264;138741;-89
2023/08/02 20:29:23;;;;;;;4.60;2.20;;;;;;;20.35;74.02;98678.86;223470;1264;140419;-91
2023/08/02 20:34:25;;;;;;;6.30;2.20;;;;;;;20.31;74.76;98689.41;223972;1264;138600;-90
2023/08/02 20:39:28;;;;;;;4.60;2.30;;;;;;;20.28;75.14;98695.11;223581;1264;140325;-90
2023/08/02 20:44:28;;;;;;;9.80;2.80;;;;;;;20.26;75.92;98682.73;223982;1264;139399;-92
2023/08/02 20:49:29;;;;;;;8.80;2.70;;;;;;;20.22;76.46;98673.48;223268;1265;140406;-91
2023/08/02 20:54:33;;;;;;;9.00;2.40;;;;;;;20.20;77.09;98669.42;223996;1264;139234;-90
2023/08/02 20:59:37;;;;;;;5.10;2.30;;;;;;;20.18;77.48;98657.06;223370;1265;141029;-91
2023/08/02 21:04:37;;;;;;;4.60;2.00;;;;;;;20.18;77.92;98663.41;224076;1264;139322;-91
2023/08/02 21:09:38;;;;;;;5.30;2.20;;;;;;;20.16;78.31;98669.02;223549;1265;140536;-93
2023/08/02 21:14:39;;;;;;;7.40;2.40;;;;;;;20.16;78.48;98670.23;223956;1264;138756;-94
2023/08/02 21:19:40;;;;;;;7.50;2.70;;;;;;;20.16;79.29;98680.28;223390;1264;140416;-88
2023/08/02 21:24:44;;;;;;;4.30;2.20;;;;;;;20.16;79.10;98660.99;224192;1264;138696;-91
2023/08/02 21:29:50;;;;;;;5.60;2.20;;;;;;;20.17;79.13;98632.61;223475;1264;141868;-88
2023/08/02 21:34:51;;;;;;;6.80;3.10;;;;;;;20.19;79.15;98646.20;224115;1263;138800;-91
2023/08/02 21:39:52;;;;;;;5.80;2.20;;;;;;;20.21;78.89;98641.20;223337;1264;359557;-93
2023/08/02 21:44:57;;;;;;;6.80;2.40;;;;;;;20.22;79.03;98626.39;224120;1264;96166;-88
2023/08/02 21:49:57;;;;;;;5.20;2.00;;;;;;;20.23;79.02;98630.14;223466;1264;139909;-89
2023/08/02 21:54:57;;;;;;;8.00;2.10;;;;;;;20.26;78.78;98607.25;224082;1263;138594;-88
2023/08/02 21:59:58;;;;;;;6.90;1.90;;;;;;;20.25;78.77;98607.41;223572;1264;140629;-86
2023/08/02 22:04:58;;;;;;;6.20;2.00;;;;;;;20.26;78.73;98592.99;224141;1264;138994;-88
2023/08/02 22:10:00;;;;;;;5.20;2.00;;;;;;;20.27;78.71;98590.71;223460;1264;142858;-86
2023/08/02 22:15:05;;;;;;;3.30;1.80;;;;;;;20.28;78.77;98582.29;224103;1263;95949;-91
2023/08/02 22:20:06;;;;;;;5.20;2.10;;;;;;;20.28;78.72;98562.29;223395;1265;140351;-89
2023/08/02 22:25:07;;;;;;;4.40;2.20;;;;;;;20.25;79.11;98566.10;224091;1264;138630;-90
2023/08/02 22:30:08;;;;;;;5.20;2.30;;;;;;;20.23;78.83;98561.67;223586;1264;141131;-88
2023/08/02 22:35:08;;;;;;;5.90;2.10;;;;;;;20.21;79.23;98532.38;224157;1263;139446;-86
2023/08/02 22:40:09;;;;;;;6.70;2.10;;;;;;;20.18;79.80;98557.73;223611;1264;140425;-91
2023/08/02 22:45:10;;;;;;;7.70;2.20;;;;;;;20.16;80.34;98576.38;224247;1264;95961;-88
2023/08/02 22:50:10;;;;;;;5.60;2.00;;;;;;;20.15;81.05;98556.56;223287;1265;141773;-86
2023/08/02 22:55:15;;;;;;;4.20;1.90;;;;;;;20.12;81.46;98562.05;224116;1264;139221;-90
2023/08/02 23:00:26;;;;;;;6.00;2.30;;;;;;;20.08;82.18;98568.38;223479;1266;141087;-88
2023/08/02 23:05:26;;;;;;;6.10;2.40;;;;;;;20.03;83.23;98574.78;224048;1264;139033;-88